createdAt,value
2022-08-16T00:01:16.018Z,59.83
2022-08-16T00:03:42.978Z,59.61
2022-08-16T00:06:10.045Z,59.40
2022-08-16T00:08:38.174Z,59.66
2022-08-16T00:11:15.812Z,59.84
2022-08-16T00:13:53.322Z,60.01
2022-08-16T00:17:06.637Z,59.84
2022-08-16T00:19:22.909Z,59.71
2022-08-16T00:21:53.164Z,59.48
2022-08-16T00:24:32.166Z,59.81
2022-08-16T00:27:01.092Z,59.66
2022-08-16T00:29:29.888Z,59.58
2022-08-16T00:32:01.446Z,59.67
2022-08-16T00:34:43.195Z,59.70
2022-08-16T00:37:21.061Z,59.81
2022-08-16T00:39:57.138Z,59.58
2022-08-16T00:42:29.732Z,59.63
2022-08-16T00:45:10.221Z,59.66
2022-08-16T00:47:49.292Z,59.54
2022-08-16T00:50:20.680Z,59.40
2022-08-16T00:52:51.307Z,59.60
2022-08-16T00:55:22.304Z,59.74
2022-08-16T00:58:00.156Z,59.66
2022-08-16T01:00:33.418Z,59.50
2022-08-16T01:03:11.732Z,59.59
2022-08-16T01:05:40.452Z,59.52
2022-08-16T01:08:35.142Z,59.59
2022-08-16T01:11:00.086Z,59.39
2022-08-16T01:13:33.066Z,59.57
2022-08-16T01:16:10.278Z,59.48
2022-08-16T01:18:45.669Z,59.81
2022-08-16T01:21:50.677Z,59.67
2022-08-16T01:24:52.687Z,59.71
2022-08-16T01:27:27.704Z,59.53
2022-08-16T01:30:26.509Z,59.58
2022-08-16T01:33:02.832Z,60.06
2022-08-16T01:35:56.654Z,59.81
2022-08-16T01:38:44.957Z,59.79
2022-08-16T01:41:30.459Z,59.76
2022-08-16T01:44:01.014Z,59.73
2022-08-16T01:46:45.203Z,59.73
2022-08-16T01:49:18.643Z,59.80
2022-08-16T01:51:55.064Z,59.78
2022-08-16T01:54:30.702Z,59.85
2022-08-16T01:56:59.590Z,59.88
2022-08-16T01:59:26.548Z,59.68
2022-08-16T02:02:00.227Z,60.00
2022-08-16T02:04:48.816Z,59.83
2022-08-16T02:07:18.419Z,59.87
2022-08-16T02:09:58.648Z,59.86
2022-08-16T02:12:39.881Z,59.89
2022-08-16T02:15:25.372Z,59.79
2022-08-16T02:17:58.300Z,60.04
2022-08-16T02:20:28.087Z,59.64
2022-08-16T02:23:05.591Z,59.72
2022-08-16T02:25:51.884Z,59.82
2022-08-16T02:28:23.696Z,59.61
2022-08-16T02:30:52.290Z,59.90
2022-08-16T02:33:24.449Z,60.03
2022-08-16T02:35:55.151Z,59.92
2022-08-16T02:38:27.400Z,60.25
2022-08-16T02:40:56.526Z,59.85
2022-08-16T02:43:29.762Z,59.96
2022-08-16T02:46:01.266Z,59.97
2022-08-16T02:48:31.123Z,59.99
2022-08-16T02:51:06.155Z,60.02
2022-08-16T02:53:35.485Z,60.00
2022-08-16T02:56:02.472Z,59.95
2022-08-16T02:58:29.401Z,59.93
2022-08-16T03:00:57.711Z,59.82
2022-08-16T03:03:26.713Z,59.91
2022-08-16T03:06:39.634Z,59.80
2022-08-16T03:09:01.892Z,59.88
2022-08-16T03:11:28.720Z,59.92
2022-08-16T03:14:02.628Z,59.88
2022-08-16T03:16:38.470Z,60.04
2022-08-16T03:19:09.840Z,60.05
2022-08-16T03:21:38.707Z,60.09
2022-08-16T03:24:28.793Z,59.83
2022-08-16T03:26:57.967Z,59.74
2022-08-16T03:29:30.400Z,59.70
2022-08-16T03:32:01.968Z,59.69
2022-08-16T03:34:30.538Z,59.67
2022-08-16T03:36:58.234Z,59.83
2022-08-16T03:39:25.159Z,59.78
2022-08-16T03:41:59.897Z,59.72
2022-08-16T03:44:44.592Z,59.80
2022-08-16T03:47:19.042Z,59.80
2022-08-16T03:49:51.395Z,59.78
2022-08-16T03:52:20.592Z,59.88
2022-08-16T03:54:58.181Z,59.97
2022-08-16T03:57:32.145Z,59.94
2022-08-16T04:00:35.350Z,59.79
2022-08-16T04:03:08.843Z,59.72
2022-08-16T04:05:41.053Z,59.75
2022-08-16T04:08:23.071Z,59.79
2022-08-16T04:10:54.249Z,59.77
2022-08-16T04:14:00.468Z,59.89
2022-08-16T04:16:26.397Z,59.66
2022-08-16T04:19:01.383Z,59.79
2022-08-16T04:21:33.505Z,59.82
2022-08-16T04:24:02.789Z,59.98
2022-08-16T04:26:32.187Z,59.96
2022-08-16T04:29:16.877Z,60.17
2022-08-16T04:31:56.373Z,60.21
2022-08-16T04:34:27.647Z,60.61
2022-08-16T04:36:56.631Z,60.49
2022-08-16T04:39:24.464Z,60.53
2022-08-16T04:42:11.258Z,60.27
2022-08-16T04:44:53.791Z,60.38
2022-08-16T04:47:24.928Z,60.38
2022-08-16T04:49:52.785Z,60.16
2022-08-16T04:52:32.650Z,60.34
2022-08-16T04:55:06.019Z,60.54
2022-08-16T04:57:33.131Z,60.31
2022-08-16T05:00:30.868Z,60.42
2022-08-16T05:02:55.834Z,60.46
2022-08-16T05:05:23.555Z,60.49
2022-08-16T05:07:58.228Z,60.12
2022-08-16T05:10:29.450Z,59.82
2022-08-16T05:12:58.264Z,59.81
2022-08-16T05:15:26.201Z,59.29
2022-08-16T05:17:58.507Z,59.32
2022-08-16T05:20:39.066Z,59.16
2022-08-16T05:23:13.667Z,58.46
2022-08-16T05:25:48.458Z,57.82
2022-08-16T05:28:18.545Z,57.86
2022-08-16T05:30:45.984Z,56.58
2022-08-16T05:33:18.085Z,56.47
2022-08-16T05:35:55.218Z,55.82
2022-08-16T05:38:33.115Z,55.59
2022-08-16T05:41:07.050Z,55.45
2022-08-16T05:43:43.320Z,54.85
2022-08-16T05:46:29.747Z,54.78
2022-08-16T05:49:05.424Z,54.53
2022-08-16T05:51:38.160Z,54.00
2022-08-16T05:54:07.893Z,52.81
2022-08-16T05:56:37.524Z,53.05
2022-08-16T05:59:06.102Z,53.26
2022-08-16T06:01:37.836Z,52.49
2022-08-16T06:04:13.518Z,51.99
2022-08-16T06:06:56.751Z,52.07
2022-08-16T06:09:42.972Z,51.98
2022-08-16T06:12:27.392Z,51.49
2022-08-16T06:14:59.203Z,51.10
2022-08-16T06:17:42.660Z,50.62
2022-08-16T06:20:18.426Z,50.50
2022-08-16T06:23:03.034Z,50.08
2022-08-16T06:25:36.643Z,49.74
2022-08-16T06:28:17.075Z,50.06
2022-08-16T06:30:58.595Z,49.76
2022-08-16T06:33:25.414Z,49.72
2022-08-16T06:35:54.940Z,49.59
2022-08-16T06:38:32.303Z,48.59
2022-08-16T06:41:12.375Z,48.20
2022-08-16T06:43:41.646Z,47.58
2022-08-16T06:46:31.975Z,46.61
2022-08-16T06:49:05.261Z,46.33
2022-08-16T06:51:48.365Z,46.49
2022-08-16T06:54:16.744Z,46.87
2022-08-16T06:56:43.710Z,47.13
2022-08-16T06:59:10.875Z,47.32
2022-08-16T07:01:43.135Z,47.41
2022-08-16T07:04:13.316Z,47.13
2022-08-16T07:06:59.665Z,46.38
2022-08-16T07:09:29.760Z,46.59
2022-08-16T07:12:05.338Z,45.55
2022-08-16T07:14:33.378Z,45.35
2022-08-16T07:17:00.833Z,43.98
2022-08-16T07:20:01.459Z,44.04
2022-08-16T07:22:37.907Z,43.60
2022-08-16T07:25:11.769Z,43.16
2022-08-16T07:27:40.011Z,42.01
2022-08-16T07:30:38.456Z,41.21
2022-08-16T07:32:58.658Z,41.32
2022-08-16T07:35:26.086Z,40.91
2022-08-16T07:37:53.342Z,40.92
2022-08-16T07:40:36.998Z,40.41
2022-08-16T07:43:07.457Z,40.05
2022-08-16T07:45:34.502Z,39.11
2022-08-16T07:48:11.443Z,38.50
2022-08-16T07:50:56.186Z,38.61
2022-08-16T07:53:31.174Z,38.09
2022-08-16T07:56:04.395Z,38.05
2022-08-16T07:58:34.993Z,39.01
2022-08-16T08:01:10.979Z,38.64
2022-08-16T08:03:47.613Z,39.30
2022-08-16T08:06:18.262Z,39.02
2022-08-16T08:08:51.045Z,38.02
2022-08-16T08:11:19.868Z,38.59
2022-08-16T08:13:49.418Z,38.05
2022-08-16T08:16:19.604Z,38.47
2022-08-16T08:18:50.556Z,38.84
2022-08-16T08:21:26.183Z,39.42
2022-08-16T08:23:54.767Z,39.15
2022-08-16T08:26:22.114Z,39.72
2022-08-16T08:28:51.569Z,40.15
2022-08-16T08:31:19.059Z,40.77
2022-08-16T08:33:47.567Z,40.92
2022-08-16T08:36:33.040Z,41.45
2022-08-16T08:39:00.587Z,41.26
2022-08-16T08:41:28.872Z,41.89
2022-08-16T08:43:56.976Z,42.09
2022-08-16T08:46:25.461Z,41.80
2022-08-16T08:48:59.166Z,42.19
2022-08-16T08:51:35.529Z,41.53
2022-08-16T08:54:06.757Z,41.92
2022-08-16T08:56:37.169Z,41.67
2022-08-16T08:59:13.594Z,42.00
2022-08-16T09:01:57.189Z,41.91
2022-08-16T09:04:27.026Z,41.84
2022-08-16T09:06:55.266Z,42.48
2022-08-16T09:09:23.424Z,43.21
2022-08-16T09:12:04.206Z,42.82
2022-08-16T09:14:35.426Z,43.55
2022-08-16T09:17:11.905Z,43.87
2022-08-16T09:19:52.640Z,43.45
2022-08-16T09:22:23.886Z,44.04
2022-08-16T09:24:52.464Z,43.36
2022-08-16T09:27:26.466Z,43.66
2022-08-16T09:30:00.487Z,43.50
2022-08-16T09:32:31.287Z,43.17
2022-08-16T09:35:01.359Z,43.66
2022-08-16T09:37:30.500Z,43.46
2022-08-16T09:40:31.839Z,42.93
2022-08-16T09:42:56.124Z,43.36
2022-08-16T09:45:27.892Z,43.43
2022-08-16T09:47:58.174Z,42.76
2022-08-16T09:50:36.945Z,43.12
2022-08-16T09:53:15.580Z,43.51
2022-08-16T09:55:49.326Z,42.88
2022-08-16T09:58:37.859Z,43.85
2022-08-16T10:01:08.455Z,44.10
2022-08-16T10:03:37.950Z,43.69
2022-08-16T10:06:26.197Z,43.89
2022-08-16T10:09:05.584Z,43.54
2022-08-16T10:11:56.099Z,43.35
2022-08-16T10:14:38.631Z,43.71
2022-08-16T10:17:06.167Z,43.58
2022-08-16T10:19:33.647Z,43.74
2022-08-16T10:22:04.955Z,43.69
2022-08-16T10:24:33.384Z,42.63
2022-08-16T10:27:26.179Z,42.28
2022-08-16T10:29:59.544Z,42.59
2022-08-16T10:32:30.510Z,42.92
2022-08-16T10:34:58.073Z,42.15
2022-08-16T10:37:36.061Z,42.02
2022-08-16T10:40:28.616Z,42.22
2022-08-16T10:42:56.076Z,42.14
2022-08-16T10:45:23.053Z,41.95
2022-08-16T10:48:02.845Z,41.85
2022-08-16T10:50:32.517Z,42.27
2022-08-16T10:53:00.507Z,42.63
2022-08-16T10:55:40.848Z,42.16
2022-08-16T10:58:16.926Z,43.07
2022-08-16T11:00:46.309Z,42.81
2022-08-16T11:06:06.678Z,41.49
2022-08-16T11:08:40.794Z,41.38
2022-08-16T11:11:19.111Z,40.79
2022-08-16T11:14:11.476Z,40.67
2022-08-16T11:19:22.919Z,41.11
2022-08-16T11:24:43.277Z,41.31
2022-08-16T11:27:23.337Z,41.00
2022-08-16T11:29:55.703Z,40.61
2022-08-16T11:32:29.820Z,41.13
2022-08-16T11:35:10.588Z,41.17
2022-08-16T11:40:32.869Z,41.17
2022-08-16T11:43:04.128Z,41.33
2022-08-16T11:45:33.653Z,41.34
2022-08-16T11:48:03.797Z,40.34
2022-08-16T11:50:33.404Z,40.75
2022-08-16T11:53:08.287Z,39.88
2022-08-16T11:55:38.083Z,40.40
2022-08-16T11:58:08.328Z,40.78
2022-08-16T12:00:51.285Z,40.94
2022-08-16T12:03:29.678Z,40.21
2022-08-16T12:06:25.448Z,40.39
2022-08-16T12:09:01.066Z,40.32
2022-08-16T12:11:31.585Z,40.37
2022-08-16T12:14:04.209Z,40.46
2022-08-16T12:16:34.321Z,40.22
2022-08-16T12:19:04.892Z,40.16
2022-08-16T12:21:57.814Z,40.26
2022-08-16T12:24:19.974Z,40.25
2022-08-16T12:26:46.793Z,39.88
2022-08-16T12:29:13.724Z,39.64
2022-08-16T12:32:01.555Z,39.57
2022-08-16T12:34:29.432Z,39.78
2022-08-16T12:36:56.505Z,39.61
2022-08-16T12:39:23.714Z,39.63
2022-08-16T12:41:57.637Z,38.97
2022-08-16T12:44:26.539Z,39.26
2022-08-16T12:47:17.343Z,39.52
2022-08-16T12:49:44.191Z,39.30
2022-08-16T12:52:32.633Z,38.83
2022-08-16T12:54:59.645Z,39.23
2022-08-16T12:57:36.158Z,38.80
2022-08-16T13:00:26.403Z,37.92
2022-08-16T13:03:02.835Z,38.87
2022-08-16T13:08:03.253Z,38.85
2022-08-16T13:10:36.855Z,37.84
2022-08-16T13:13:06.547Z,37.92
2022-08-16T13:15:55.770Z,38.08
2022-08-16T13:18:33.504Z,37.85
2022-08-16T13:21:03.004Z,37.61
2022-08-16T13:23:30.697Z,37.73
2022-08-16T13:25:58.064Z,37.10
2022-08-16T13:28:24.973Z,37.29
2022-08-16T13:30:55.397Z,37.33
2022-08-16T13:33:30.553Z,36.85
2022-08-16T13:36:00.725Z,36.25
2022-08-16T13:38:32.672Z,35.94
2022-08-16T13:41:08.956Z,36.71
2022-08-16T13:43:38.123Z,34.83
2022-08-16T13:46:06.567Z,35.88
2022-08-16T13:48:43.072Z,35.59
2022-08-16T13:51:16.605Z,35.83
2022-08-16T13:53:45.876Z,34.79
2022-08-16T13:56:24.932Z,34.67
2022-08-16T13:58:54.804Z,34.67
2022-08-16T14:01:22.378Z,34.75
2022-08-16T14:03:50.209Z,34.22
2022-08-16T14:06:21.821Z,34.70
2022-08-16T14:08:50.227Z,34.78
2022-08-16T14:11:26.468Z,35.12
2022-08-16T14:13:56.141Z,35.29
2022-08-16T14:16:33.962Z,35.28
2022-08-16T14:19:02.181Z,35.45
2022-08-16T14:21:35.242Z,34.86
2022-08-16T14:24:22.171Z,35.22
2022-08-16T14:26:52.646Z,35.01
2022-08-16T14:29:20.394Z,35.37
2022-08-16T14:31:53.474Z,34.87
2022-08-16T14:34:21.549Z,34.29
2022-08-16T14:36:53.229Z,34.17
2022-08-16T14:39:22.046Z,33.99
2022-08-16T14:41:53.775Z,33.50
2022-08-16T14:44:23.668Z,33.82
2022-08-16T14:46:52.969Z,34.22
2022-08-16T14:49:20.158Z,34.01
2022-08-16T14:51:48.660Z,33.92
2022-08-16T14:54:15.709Z,34.98
2022-08-16T14:56:46.888Z,33.74
2022-08-16T14:59:22.656Z,34.56
2022-08-16T15:01:57.592Z,34.16
2022-08-16T15:04:40.551Z,34.02
2022-08-16T15:07:16.643Z,34.17
2022-08-16T15:10:01.064Z,33.26
2022-08-16T15:12:31.077Z,33.61
2022-08-16T15:15:01.736Z,33.32
2022-08-16T15:17:39.432Z,33.36
2022-08-16T15:20:08.666Z,33.63
2022-08-16T15:22:43.534Z,33.41
2022-08-16T15:25:29.734Z,33.86
2022-08-16T15:27:58.499Z,33.89
2022-08-16T15:30:56.868Z,34.51
2022-08-16T15:33:19.567Z,34.38
2022-08-16T15:35:50.506Z,34.45
2022-08-16T15:38:43.524Z,34.95
2022-08-16T15:41:04.654Z,35.32
2022-08-16T15:43:38.872Z,35.25
2022-08-16T15:46:35.521Z,35.58
2022-08-16T15:49:15.570Z,35.58
2022-08-16T15:51:45.465Z,34.93
2022-08-16T15:54:20.901Z,35.04
2022-08-16T15:57:03.016Z,34.92
2022-08-16T15:59:49.208Z,35.23
2022-08-16T16:02:29.695Z,34.53
2022-08-16T16:05:01.910Z,34.35
2022-08-16T16:07:30.841Z,34.04
2022-08-16T16:10:00.255Z,34.12
2022-08-16T16:12:52.896Z,33.84
2022-08-16T16:15:18.759Z,33.90
2022-08-16T16:17:50.915Z,33.99
2022-08-16T16:20:21.563Z,33.79
2022-08-16T16:22:49.281Z,34.33
2022-08-16T16:25:18.097Z,34.15
2022-08-16T16:27:45.613Z,33.86
2022-08-16T16:30:33.513Z,34.00
2022-08-16T16:33:01.440Z,34.62
2022-08-16T16:35:32.664Z,34.13
2022-08-16T16:38:00.155Z,34.80
2022-08-16T16:40:32.598Z,34.79
2022-08-16T16:43:00.886Z,35.00
2022-08-16T16:45:33.345Z,34.33
2022-08-16T16:48:12.796Z,34.19
2022-08-16T16:50:45.224Z,34.79
2022-08-16T16:53:17.688Z,34.75
2022-08-16T16:55:52.227Z,35.13
2022-08-16T16:58:43.435Z,35.22
2022-08-16T17:01:20.973Z,34.95
2022-08-16T17:04:13.209Z,35.47
2022-08-16T17:06:53.434Z,37.81
2022-08-16T17:09:24.689Z,36.52
2022-08-16T17:11:55.481Z,35.84
2022-08-16T17:14:32.668Z,36.01
2022-08-16T17:19:54.271Z,36.88
2022-08-16T17:22:23.006Z,36.45
2022-08-16T17:24:52.681Z,36.45
2022-08-16T17:27:32.161Z,37.03
2022-08-16T17:30:15.606Z,37.49
2022-08-16T17:32:54.473Z,37.81
2022-08-16T17:35:33.705Z,37.64
2022-08-16T17:38:06.090Z,37.91
2022-08-16T17:39:26.422Z,35.88
2022-08-16T17:40:47.213Z,37.74
2022-08-16T17:43:43.886Z,37.78
2022-08-16T17:46:41.572Z,37.64
2022-08-16T17:49:00.850Z,37.57
2022-08-16T17:51:28.485Z,38.34
2022-08-16T17:53:55.802Z,38.02
2022-08-16T17:56:22.684Z,38.56
2022-08-16T17:58:49.528Z,38.82
2022-08-16T18:01:16.775Z,38.76
2022-08-16T18:04:07.283Z,38.52
2022-08-16T18:06:30.764Z,38.53
2022-08-16T18:09:02.674Z,38.58
2022-08-16T18:11:33.738Z,38.92
2022-08-16T18:14:00.610Z,39.28
2022-08-16T18:16:27.614Z,39.43
2022-08-16T18:18:54.414Z,39.49
2022-08-16T18:21:40.554Z,39.76
2022-08-16T18:24:09.033Z,39.65
2022-08-16T18:26:36.342Z,39.97
2022-08-16T18:29:04.025Z,40.00
2022-08-16T18:31:31.298Z,40.23
2022-08-16T18:33:58.185Z,40.17
2022-08-16T18:36:25.684Z,40.22
2022-08-16T18:38:53.606Z,39.92
2022-08-16T18:41:23.023Z,40.08
2022-08-16T18:44:22.885Z,40.56
2022-08-16T18:46:44.168Z,40.85
2022-08-16T18:49:14.927Z,40.83
2022-08-16T18:51:45.457Z,41.09
2022-08-16T18:54:16.279Z,41.40
2022-08-16T18:56:56.930Z,41.64
2022-08-16T18:59:28.116Z,41.59
2022-08-16T19:02:00.175Z,41.43
2022-08-16T19:04:55.532Z,41.84
2022-08-16T19:07:22.914Z,41.68
2022-08-16T19:09:57.517Z,41.65
2022-08-16T19:12:38.400Z,42.04
2022-08-16T19:15:19.381Z,42.01
2022-08-16T19:17:46.479Z,42.33
2022-08-16T19:20:18.187Z,42.43
2022-08-16T19:23:04.593Z,42.33
2022-08-16T19:25:49.193Z,42.61
2022-08-16T19:28:48.274Z,42.42
2022-08-16T19:31:24.525Z,42.64
2022-08-16T19:33:56.801Z,42.64
2022-08-16T19:36:35.462Z,42.73
2022-08-16T19:39:08.618Z,43.20
2022-08-16T19:41:38.487Z,43.02
2022-08-16T19:44:06.857Z,43.17
2022-08-16T19:46:34.445Z,43.37
2022-08-16T19:49:01.346Z,43.56
2022-08-16T19:51:28.231Z,43.50
2022-08-16T19:53:55.076Z,43.92
2022-08-16T19:56:24.561Z,43.90
2022-08-16T19:59:17.574Z,43.61
2022-08-16T20:01:42.366Z,44.22
2022-08-16T20:04:12.281Z,44.21
2022-08-16T20:06:40.560Z,44.20
2022-08-16T20:09:07.833Z,44.21
2022-08-16T20:11:35.514Z,44.14
2022-08-16T20:14:02.796Z,43.84
2022-08-16T20:16:29.863Z,44.20
2022-08-16T20:18:56.747Z,44.45
2022-08-16T20:21:24.205Z,44.87
2022-08-16T20:23:51.098Z,44.29
2022-08-16T20:26:18.710Z,44.54
2022-08-16T20:28:53.564Z,44.90
2022-08-16T20:31:22.807Z,44.87
2022-08-16T20:33:50.896Z,45.04
2022-08-16T20:36:17.716Z,45.02
2022-08-16T20:38:47.213Z,45.18
2022-08-16T20:41:16.067Z,45.34
2022-08-16T20:43:43.433Z,45.26
2022-08-16T20:46:10.643Z,45.69
2022-08-16T20:48:37.440Z,45.48
2022-08-16T20:51:06.678Z,45.68
2022-08-16T20:53:33.913Z,46.04
2022-08-16T20:56:00.681Z,46.25
2022-08-16T20:58:27.522Z,46.26
2022-08-16T21:00:54.411Z,46.37
2022-08-16T21:03:21.250Z,46.13
2022-08-16T21:05:48.029Z,46.21
2022-08-16T21:08:50.569Z,46.50
2022-08-16T21:11:05.433Z,46.49
2022-08-16T21:13:33.865Z,46.26
2022-08-16T21:16:02.498Z,46.47
2022-08-16T21:18:29.669Z,46.54
2022-08-16T21:20:56.597Z,46.33
2022-08-16T21:23:23.445Z,46.27
2022-08-16T21:25:59.122Z,46.61
2022-08-16T21:28:40.138Z,46.63
2022-08-16T21:31:15.301Z,47.02
2022-08-16T21:33:43.684Z,47.14
2022-08-16T21:36:11.769Z,47.26
2022-08-16T21:38:39.963Z,47.19
2022-08-16T21:41:08.744Z,46.81
2022-08-16T21:43:35.809Z,47.22
2022-08-16T21:46:04.561Z,47.35
2022-08-16T21:48:34.010Z,46.83
2022-08-16T21:51:11.341Z,47.15
2022-08-16T21:53:38.401Z,46.77
2022-08-16T21:56:06.901Z,46.85
2022-08-16T21:58:36.650Z,46.73
2022-08-16T22:01:04.249Z,47.10
2022-08-16T22:03:32.753Z,47.14
2022-08-16T22:06:12.964Z,46.79
2022-08-16T22:08:49.411Z,47.28
2022-08-16T22:11:23.801Z,46.99
2022-08-16T22:13:57.840Z,47.14
2022-08-16T22:16:33.638Z,47.71
2022-08-16T22:19:01.765Z,47.29
2022-08-16T22:21:29.896Z,47.48
2022-08-16T22:23:58.663Z,47.72
2022-08-16T22:26:33.833Z,47.65
2022-08-16T22:29:05.107Z,47.46
2022-08-16T22:31:32.960Z,47.58
2022-08-16T22:34:01.717Z,47.49
2022-08-16T22:36:30.482Z,47.75
2022-08-16T22:38:59.892Z,48.02
2022-08-16T22:41:32.171Z,47.61
2022-08-16T22:44:00.810Z,47.59
2022-08-16T22:46:27.700Z,47.64
2022-08-16T22:48:54.930Z,48.10
2022-08-16T22:51:24.813Z,47.97
2022-08-16T22:53:52.779Z,47.96
2022-08-16T22:56:20.093Z,48.16
2022-08-16T22:58:47.501Z,48.48
2022-08-16T23:01:16.810Z,48.49
2022-08-16T23:03:44.247Z,48.46
2022-08-16T23:06:13.674Z,48.82
2022-08-16T23:08:41.725Z,48.74
2022-08-16T23:11:12.727Z,48.58
2022-08-16T23:13:53.012Z,48.87
2022-08-16T23:16:33.459Z,48.79
2022-08-16T23:19:04.902Z,48.71
2022-08-16T23:21:32.783Z,48.97
2022-08-16T23:23:59.980Z,49.04
2022-08-16T23:26:46.564Z,48.76
2022-08-16T23:29:15.958Z,48.85
2022-08-16T23:31:54.412Z,49.17
2022-08-16T23:34:22.045Z,49.12
2022-08-16T23:36:48.861Z,49.06
2022-08-16T23:39:15.688Z,49.02
2022-08-16T23:41:43.775Z,48.90
2022-08-16T23:44:57.718Z,49.07
2022-08-16T23:46:57.377Z,49.41
2022-08-16T23:49:59.064Z,49.60
2022-08-16T23:52:11.361Z,49.26
2022-08-16T23:54:38.365Z,49.24
2022-08-16T23:57:05.364Z,49.40
2022-08-16T23:59:35.898Z,49.53
